Terminal Aerodrome Forecast
Issued by NWS

Home | Current Version | Previous Version | Text Only | Print | Product List | Glossary On
Versions: 1 2 3 4 5 6 7 8 9 10 11 12 13 14 15 16 17 18 19 20 21 22 23 24 25
000
FTUS43 KDLH 012339
TAFHIB
TAF
KHIB 012339Z 0200/0224 25007KT P6SM SCT070 SCT100
     FM020700 VRB04KT P6SM VCSH BKN060 OVC100
      TEMPO 0209/0213 -TSRA SCT025 BKN035CB OVC060
     FM021400 33008KT P6SM VCSH SCT030 BKN040
     FM021800 33011G18KT P6SM SCT040 SCT060=

USA.gov is the U.S. government's official web portal to all federal, state and local government web resources and services.